sensor_id;sensor_type;location;lat;lon;timestamp;P1;durP1;ratioP1;P2;durP2;ratioP2
53056;SDS011;38940;50.096;4.012;2023-04-15T00:01:35;0.73;;;0.60;;
53056;SDS011;38940;50.096;4.012;2023-04-15T00:04:01;1.65;;;0.60;;
53056;SDS011;38940;50.096;4.012;2023-04-15T00:06:28;2.10;;;0.70;;
53056;SDS011;38940;50.096;4.012;2023-04-15T00:08:55;1.92;;;0.63;;
53056;SDS011;38940;50.096;4.012;2023-04-15T00:11:21;1.17;;;0.63;;
53056;SDS011;38940;50.096;4.012;2023-04-15T00:13:50;1.73;;;0.70;;
53056;SDS011;38940;50.096;4.012;2023-04-15T00:16:16;1.77;;;0.90;;
53056;SDS011;38940;50.096;4.012;2023-04-15T00:18:42;1.17;;;0.70;;
53056;SDS011;38940;50.096;4.012;2023-04-15T00:21:08;2.00;;;0.90;;
53056;SDS011;38940;50.096;4.012;2023-04-15T00:23:34;1.70;;;1.05;;
53056;SDS011;38940;50.096;4.012;2023-04-15T00:26:00;2.70;;;1.10;;
53056;SDS011;38940;50.096;4.012;2023-04-15T00:28:26;2.20;;;1.05;;
53056;SDS011;38940;50.096;4.012;2023-04-15T00:30:53;1.60;;;0.90;;
53056;SDS011;38940;50.096;4.012;2023-04-15T00:33:19;2.03;;;0.65;;
53056;SDS011;38940;50.096;4.012;2023-04-15T00:35:45;2.05;;;0.65;;
53056;SDS011;38940;50.096;4.012;2023-04-15T00:38:11;1.17;;;0.55;;
53056;SDS011;38940;50.096;4.012;2023-04-15T00:40:37;1.50;;;0.68;;
53056;SDS011;38940;50.096;4.012;2023-04-15T00:43:03;1.17;;;0.70;;
53056;SDS011;38940;50.096;4.012;2023-04-15T00:45:29;1.58;;;0.75;;
53056;SDS011;38940;50.096;4.012;2023-04-15T00:47:55;1.88;;;0.80;;
53056;SDS011;38940;50.096;4.012;2023-04-15T00:50:22;2.78;;;0.75;;
53056;SDS011;38940;50.096;4.012;2023-04-15T00:52:48;2.95;;;0.80;;
53056;SDS011;38940;50.096;4.012;2023-04-15T00:55:14;1.70;;;0.77;;
53056;SDS011;38940;50.096;4.012;2023-04-15T00:57:40;1.85;;;1.00;;
53056;SDS011;38940;50.096;4.012;2023-04-15T01:00:07;2.28;;;1.05;;
53056;SDS011;38940;50.096;4.012;2023-04-15T01:02:35;1.80;;;0.90;;
53056;SDS011;38940;50.096;4.012;2023-04-15T01:05:01;1.42;;;0.70;;
53056;SDS011;38940;50.096;4.012;2023-04-15T01:07:28;1.53;;;0.83;;
53056;SDS011;38940;50.096;4.012;2023-04-15T01:09:54;2.92;;;0.80;;
53056;SDS011;38940;50.096;4.012;2023-04-15T01:12:20;2.65;;;0.80;;
53056;SDS011;38940;50.096;4.012;2023-04-15T01:14:47;1.73;;;0.80;;
53056;SDS011;38940;50.096;4.012;2023-04-15T01:17:13;1.80;;;0.75;;
53056;SDS011;38940;50.096;4.012;2023-04-15T01:19:39;1.02;;;0.70;;
53056;SDS011;38940;50.096;4.012;2023-04-15T01:22:05;0.75;;;0.60;;
53056;SDS011;38940;50.096;4.012;2023-04-15T01:24:31;0.88;;;0.60;;
53056;SDS011;38940;50.096;4.012;2023-04-15T01:26:58;2.10;;;0.63;;
53056;SDS011;38940;50.096;4.012;2023-04-15T01:29:24;0.88;;;0.47;;
53056;SDS011;38940;50.096;4.012;2023-04-15T01:31:51;1.48;;;0.50;;
53056;SDS011;38940;50.096;4.012;2023-04-15T01:34:18;3.00;;;0.65;;
53056;SDS011;38940;50.096;4.012;2023-04-15T01:36:44;1.00;;;0.57;;
53056;SDS011;38940;50.096;4.012;2023-04-15T01:39:10;1.20;;;0.70;;
53056;SDS011;38940;50.096;4.012;2023-04-15T01:41:36;2.10;;;0.70;;
53056;SDS011;38940;50.096;4.012;2023-04-15T01:44:02;1.50;;;0.63;;
53056;SDS011;38940;50.096;4.012;2023-04-15T01:46:28;1.13;;;0.50;;
53056;SDS011;38940;50.096;4.012;2023-04-15T01:48:54;1.23;;;0.40;;
53056;SDS011;38940;50.096;4.012;2023-04-15T01:51:20;2.03;;;0.53;;
53056;SDS011;38940;50.096;4.012;2023-04-15T01:53:47;1.10;;;0.50;;
53056;SDS011;38940;50.096;4.012;2023-04-15T01:56:13;1.00;;;0.50;;
53056;SDS011;38940;50.096;4.012;2023-04-15T01:58:40;1.45;;;0.57;;
53056;SDS011;38940;50.096;4.012;2023-04-15T02:01:06;2.75;;;0.50;;
53056;SDS011;38940;50.096;4.012;2023-04-15T02:03:34;1.30;;;0.50;;
53056;SDS011;38940;50.096;4.012;2023-04-15T02:06:01;2.72;;;0.60;;
53056;SDS011;38940;50.096;4.012;2023-04-15T02:08:28;1.10;;;0.40;;
53056;SDS011;38940;50.096;4.012;2023-04-15T02:10:54;2.25;;;0.50;;
53056;SDS011;38940;50.096;4.012;2023-04-15T02:13:20;0.70;;;0.45;;
53056;SDS011;38940;50.096;4.012;2023-04-15T02:15:47;1.08;;;0.50;;
53056;SDS011;38940;50.096;4.012;2023-04-15T02:18:14;0.77;;;0.43;;
53056;SDS011;38940;50.096;4.012;2023-04-15T02:20:40;0.80;;;0.40;;
53056;SDS011;38940;50.096;4.012;2023-04-15T02:23:07;1.57;;;0.37;;
53056;SDS011;38940;50.096;4.012;2023-04-15T02:25:33;1.02;;;0.60;;
53056;SDS011;38940;50.096;4.012;2023-04-15T02:27:59;2.92;;;0.40;;
53056;SDS011;38940;50.096;4.012;2023-04-15T02:30:25;1.52;;;0.40;;
53056;SDS011;38940;50.096;4.012;2023-04-15T02:32:51;3.03;;;0.63;;
53056;SDS011;38940;50.096;4.012;2023-04-15T02:35:17;1.05;;;0.50;;
53056;SDS011;38940;50.096;4.012;2023-04-15T02:37:44;2.70;;;0.40;;
53056;SDS011;38940;50.096;4.012;2023-04-15T02:40:10;0.70;;;0.30;;
53056;SDS011;38940;50.096;4.012;2023-04-15T02:42:40;1.70;;;0.40;;
53056;SDS011;38940;50.096;4.012;2023-04-15T02:45:07;1.05;;;0.40;;
53056;SDS011;38940;50.096;4.012;2023-04-15T02:47:33;1.33;;;0.38;;
53056;SDS011;38940;50.096;4.012;2023-04-15T02:50:00;1.73;;;0.43;;
53056;SDS011;38940;50.096;4.012;2023-04-15T02:52:26;1.90;;;0.50;;
53056;SDS011;38940;50.096;4.012;2023-04-15T02:54:52;0.95;;;0.50;;
53056;SDS011;38940;50.096;4.012;2023-04-15T02:57:22;1.23;;;0.40;;
53056;SDS011;38940;50.096;4.012;2023-04-15T02:59:48;1.23;;;0.43;;
53056;SDS011;38940;50.096;4.012;2023-04-15T03:02:14;1.23;;;0.60;;
53056;SDS011;38940;50.096;4.012;2023-04-15T03:04:40;1.05;;;0.57;;
53056;SDS011;38940;50.096;4.012;2023-04-15T03:07:06;1.85;;;0.50;;
53056;SDS011;38940;50.096;4.012;2023-04-15T03:09:32;3.05;;;0.50;;
53056;SDS011;38940;50.096;4.012;2023-04-15T03:11:58;0.50;;;0.30;;
53056;SDS011;38940;50.096;4.012;2023-04-15T03:14:24;1.00;;;0.40;;
53056;SDS011;38940;50.096;4.012;2023-04-15T03:16:50;1.50;;;0.70;;
53056;SDS011;38940;50.096;4.012;2023-04-15T03:19:16;2.70;;;0.60;;
53056;SDS011;38940;50.096;4.012;2023-04-15T03:21:42;1.07;;;0.60;;
53056;SDS011;38940;50.096;4.012;2023-04-15T03:24:08;2.85;;;0.63;;
53056;SDS011;38940;50.096;4.012;2023-04-15T03:26:34;1.35;;;0.80;;
53056;SDS011;38940;50.096;4.012;2023-04-15T03:29:00;1.98;;;0.50;;
53056;SDS011;38940;50.096;4.012;2023-04-15T03:31:26;2.40;;;0.50;;
53056;SDS011;38940;50.096;4.012;2023-04-15T03:33:52;0.60;;;0.40;;
53056;SDS011;38940;50.096;4.012;2023-04-15T03:36:18;1.13;;;0.50;;
53056;SDS011;38940;50.096;4.012;2023-04-15T03:38:44;1.77;;;0.50;;
53056;SDS011;38940;50.096;4.012;2023-04-15T03:41:10;1.45;;;0.70;;
53056;SDS011;38940;50.096;4.012;2023-04-15T03:43:37;0.70;;;0.47;;
53056;SDS011;38940;50.096;4.012;2023-04-15T03:46:03;1.90;;;0.70;;
53056;SDS011;38940;50.096;4.012;2023-04-15T03:48:29;3.05;;;0.50;;
53056;SDS011;38940;50.096;4.012;2023-04-15T03:50:55;1.58;;;0.60;;
53056;SDS011;38940;50.096;4.012;2023-04-15T03:53:21;0.90;;;0.57;;
53056;SDS011;38940;50.096;4.012;2023-04-15T03:55:47;0.80;;;0.60;;
53056;SDS011;38940;50.096;4.012;2023-04-15T03:58:13;1.80;;;0.50;;
53056;SDS011;38940;50.096;4.012;2023-04-15T04:00:39;0.95;;;0.60;;
53056;SDS011;38940;50.096;4.012;2023-04-15T04:03:06;2.00;;;0.60;;
53056;SDS011;38940;50.096;4.012;2023-04-15T04:05:32;0.90;;;0.52;;
53056;SDS011;38940;50.096;4.012;2023-04-15T04:08:01;1.00;;;0.60;;
53056;SDS011;38940;50.096;4.012;2023-04-15T04:10:27;0.80;;;0.60;;
53056;SDS011;38940;50.096;4.012;2023-04-15T04:12:52;2.08;;;0.60;;
53056;SDS011;38940;50.096;4.012;2023-04-15T04:15:19;1.13;;;0.70;;
53056;SDS011;38940;50.096;4.012;2023-04-15T04:17:45;1.35;;;0.60;;
53056;SDS011;38940;50.096;4.012;2023-04-15T04:20:11;1.30;;;0.57;;
53056;SDS011;38940;50.096;4.012;2023-04-15T04:22:40;0.75;;;0.40;;
53056;SDS011;38940;50.096;4.012;2023-04-15T04:25:06;1.07;;;0.47;;
53056;SDS011;38940;50.096;4.012;2023-04-15T04:27:34;2.78;;;0.52;;
53056;SDS011;38940;50.096;4.012;2023-04-15T04:30:00;1.10;;;0.60;;
53056;SDS011;38940;50.096;4.012;2023-04-15T04:32:26;0.77;;;0.52;;
53056;SDS011;38940;50.096;4.012;2023-04-15T04:34:52;2.92;;;0.52;;
53056;SDS011;38940;50.096;4.012;2023-04-15T04:37:18;2.22;;;0.60;;
53056;SDS011;38940;50.096;4.012;2023-04-15T04:39:44;2.30;;;0.68;;
53056;SDS011;38940;50.096;4.012;2023-04-15T04:42:10;1.70;;;0.50;;
53056;SDS011;38940;50.096;4.012;2023-04-15T04:44:36;2.22;;;0.60;;
53056;SDS011;38940;50.096;4.012;2023-04-15T04:47:03;0.80;;;0.50;;
53056;SDS011;38940;50.096;4.012;2023-04-15T04:49:29;2.20;;;0.50;;
53056;SDS011;38940;50.096;4.012;2023-04-15T04:51:55;1.55;;;0.60;;
53056;SDS011;38940;50.096;4.012;2023-04-15T04:54:22;2.10;;;0.60;;
53056;SDS011;38940;50.096;4.012;2023-04-15T04:56:48;1.77;;;0.70;;
53056;SDS011;38940;50.096;4.012;2023-04-15T04:59:14;1.37;;;0.60;;
53056;SDS011;38940;50.096;4.012;2023-04-15T05:01:40;1.60;;;0.65;;
53056;SDS011;38940;50.096;4.012;2023-04-15T05:04:06;1.87;;;0.60;;
53056;SDS011;38940;50.096;4.012;2023-04-15T05:06:32;2.88;;;0.70;;
53056;SDS011;38940;50.096;4.012;2023-04-15T05:09:00;2.10;;;0.77;;
53056;SDS011;38940;50.096;4.012;2023-04-15T05:11:27;2.73;;;0.67;;
53056;SDS011;38940;50.096;4.012;2023-04-15T05:13:53;2.17;;;0.60;;
53056;SDS011;38940;50.096;4.012;2023-04-15T05:16:19;1.55;;;0.70;;
53056;SDS011;38940;50.096;4.012;2023-04-15T05:18:45;4.40;;;0.75;;
53056;SDS011;38940;50.096;4.012;2023-04-15T05:21:11;3.00;;;1.00;;
53056;SDS011;38940;50.096;4.012;2023-04-15T05:23:37;4.43;;;0.95;;
53056;SDS011;38940;50.096;4.012;2023-04-15T05:26:03;2.08;;;1.02;;
53056;SDS011;38940;50.096;4.012;2023-04-15T05:28:29;1.77;;;0.93;;
53056;SDS011;38940;50.096;4.012;2023-04-15T05:30:55;1.90;;;0.90;;
53056;SDS011;38940;50.096;4.012;2023-04-15T05:33:21;3.63;;;1.30;;
53056;SDS011;38940;50.096;4.012;2023-04-15T05:35:48;2.45;;;1.27;;
53056;SDS011;38940;50.096;4.012;2023-04-15T05:38:13;4.65;;;1.40;;
53056;SDS011;38940;50.096;4.012;2023-04-15T05:40:40;2.38;;;1.23;;
53056;SDS011;38940;50.096;4.012;2023-04-15T05:43:06;2.45;;;1.30;;
53056;SDS011;38940;50.096;4.012;2023-04-15T05:45:32;5.25;;;1.40;;
53056;SDS011;38940;50.096;4.012;2023-04-15T05:47:58;2.77;;;1.37;;
53056;SDS011;38940;50.096;4.012;2023-04-15T05:50:24;3.45;;;1.40;;
53056;SDS011;38940;50.096;4.012;2023-04-15T05:52:50;2.72;;;1.52;;
53056;SDS011;38940;50.096;4.012;2023-04-15T05:55:16;2.63;;;1.20;;
53056;SDS011;38940;50.096;4.012;2023-04-15T05:57:42;2.78;;;1.30;;
53056;SDS011;38940;50.096;4.012;2023-04-15T06:00:08;3.95;;;1.40;;
53056;SDS011;38940;50.096;4.012;2023-04-15T06:02:34;4.53;;;1.50;;
53056;SDS011;38940;50.096;4.012;2023-04-15T06:05:00;3.60;;;1.38;;
53056;SDS011;38940;50.096;4.012;2023-04-15T06:07:26;3.70;;;1.55;;
53056;SDS011;38940;50.096;4.012;2023-04-15T06:09:52;4.22;;;1.40;;
53056;SDS011;38940;50.096;4.012;2023-04-15T06:12:18;3.27;;;1.70;;
53056;SDS011;38940;50.096;4.012;2023-04-15T06:14:44;4.13;;;1.70;;
53056;SDS011;38940;50.096;4.012;2023-04-15T06:17:10;4.27;;;1.60;;
53056;SDS011;38940;50.096;4.012;2023-04-15T06:19:38;4.05;;;1.83;;
53056;SDS011;38940;50.096;4.012;2023-04-15T06:22:04;5.28;;;1.80;;
53056;SDS011;38940;50.096;4.012;2023-04-15T06:24:31;2.75;;;1.60;;
53056;SDS011;38940;50.096;4.012;2023-04-15T06:26:57;4.73;;;1.57;;
53056;SDS011;38940;50.096;4.012;2023-04-15T06:29:23;4.55;;;1.92;;
53056;SDS011;38940;50.096;4.012;2023-04-15T06:31:49;3.80;;;1.88;;
53056;SDS011;38940;50.096;4.012;2023-04-15T06:34:16;5.05;;;1.90;;
53056;SDS011;38940;50.096;4.012;2023-04-15T06:36:44;3.97;;;1.90;;
53056;SDS011;38940;50.096;4.012;2023-04-15T06:39:10;3.80;;;1.80;;
53056;SDS011;38940;50.096;4.012;2023-04-15T06:41:36;4.20;;;1.92;;
53056;SDS011;38940;50.096;4.012;2023-04-15T06:44:02;3.93;;;1.70;;
53056;SDS011;38940;50.096;4.012;2023-04-15T06:46:28;3.93;;;1.87;;
53056;SDS011;38940;50.096;4.012;2023-04-15T06:48:54;4.10;;;2.00;;
53056;SDS011;38940;50.096;4.012;2023-04-15T06:51:21;4.57;;;1.87;;
53056;SDS011;38940;50.096;4.012;2023-04-15T06:53:48;3.87;;;1.60;;
53056;SDS011;38940;50.096;4.012;2023-04-15T06:56:14;4.05;;;1.77;;
53056;SDS011;38940;50.096;4.012;2023-04-15T06:58:40;2.63;;;1.80;;
53056;SDS011;38940;50.096;4.012;2023-04-15T07:01:06;4.22;;;1.80;;
53056;SDS011;38940;50.096;4.012;2023-04-15T07:03:32;5.05;;;1.80;;
53056;SDS011;38940;50.096;4.012;2023-04-15T07:05:58;4.35;;;2.00;;
53056;SDS011;38940;50.096;4.012;2023-04-15T07:08:25;4.85;;;1.92;;
53056;SDS011;38940;50.096;4.012;2023-04-15T07:10:51;2.83;;;1.63;;
53056;SDS011;38940;50.096;4.012;2023-04-15T07:13:18;2.67;;;1.50;;
53056;SDS011;38940;50.096;4.012;2023-04-15T07:15:44;4.53;;;1.80;;
53056;SDS011;38940;50.096;4.012;2023-04-15T07:18:10;2.90;;;1.70;;
53056;SDS011;38940;50.096;4.012;2023-04-15T07:20:36;3.67;;;1.80;;
53056;SDS011;38940;50.096;4.012;2023-04-15T07:23:02;5.03;;;1.90;;
53056;SDS011;38940;50.096;4.012;2023-04-15T07:25:28;4.30;;;1.90;;
53056;SDS011;38940;50.096;4.012;2023-04-15T07:27:54;2.67;;;1.63;;
53056;SDS011;38940;50.096;4.012;2023-04-15T07:30:20;4.05;;;2.00;;
53056;SDS011;38940;50.096;4.012;2023-04-15T07:32:47;3.83;;;1.80;;
53056;SDS011;38940;50.096;4.012;2023-04-15T07:35:13;4.28;;;1.90;;
53056;SDS011;38940;50.096;4.012;2023-04-15T07:37:39;4.20;;;1.70;;
53056;SDS011;38940;50.096;4.012;2023-04-15T07:40:07;5.53;;;2.10;;
53056;SDS011;38940;50.096;4.012;2023-04-15T07:42:33;3.25;;;1.83;;
53056;SDS011;38940;50.096;4.012;2023-04-15T07:45:00;3.20;;;1.70;;
53056;SDS011;38940;50.096;4.012;2023-04-15T07:47:26;4.68;;;1.60;;
53056;SDS011;38940;50.096;4.012;2023-04-15T07:49:52;3.65;;;1.80;;
53056;SDS011;38940;50.096;4.012;2023-04-15T07:52:18;3.30;;;1.90;;
53056;SDS011;38940;50.096;4.012;2023-04-15T07:54:44;4.88;;;1.77;;
53056;SDS011;38940;50.096;4.012;2023-04-15T07:57:10;3.67;;;1.80;;
53056;SDS011;38940;50.096;4.012;2023-04-15T07:59:36;2.80;;;1.70;;
53056;SDS011;38940;50.096;4.012;2023-04-15T08:02:02;3.60;;;1.90;;
53056;SDS011;38940;50.096;4.012;2023-04-15T08:04:28;5.00;;;1.77;;
53056;SDS011;38940;50.096;4.012;2023-04-15T08:06:55;4.35;;;1.98;;
53056;SDS011;38940;50.096;4.012;2023-04-15T08:09:21;4.10;;;1.77;;
53056;SDS011;38940;50.096;4.012;2023-04-15T08:11:48;3.20;;;2.03;;
53056;SDS011;38940;50.096;4.012;2023-04-15T08:14:15;3.72;;;1.83;;
53056;SDS011;38940;50.096;4.012;2023-04-15T08:16:41;4.43;;;2.05;;
53056;SDS011;38940;50.096;4.012;2023-04-15T08:19:07;4.38;;;2.05;;
53056;SDS011;38940;50.096;4.012;2023-04-15T08:21:33;5.00;;;2.10;;
53056;SDS011;38940;50.096;4.012;2023-04-15T08:23:59;3.93;;;2.00;;
53056;SDS011;38940;50.096;4.012;2023-04-15T08:26:25;3.95;;;1.85;;
53056;SDS011;38940;50.096;4.012;2023-04-15T08:28:51;4.37;;;1.90;;
53056;SDS011;38940;50.096;4.012;2023-04-15T08:31:17;3.50;;;1.83;;
53056;SDS011;38940;50.096;4.012;2023-04-15T08:33:44;6.20;;;1.90;;
53056;SDS011;38940;50.096;4.012;2023-04-15T08:36:10;6.72;;;2.25;;
53056;SDS011;38940;50.096;4.012;2023-04-15T08:38:37;7.03;;;2.13;;
53056;SDS011;38940;50.096;4.012;2023-04-15T08:41:25;4.03;;;2.17;;
53056;SDS011;38940;50.096;4.012;2023-04-15T08:43:51;4.13;;;1.92;;
53056;SDS011;38940;50.096;4.012;2023-04-15T08:46:18;6.17;;;2.30;;
53056;SDS011;38940;50.096;4.012;2023-04-15T08:48:46;4.15;;;1.88;;
53056;SDS011;38940;50.096;4.012;2023-04-15T08:51:13;4.88;;;2.28;;
53056;SDS011;38940;50.096;4.012;2023-04-15T08:53:40;5.00;;;1.95;;
53056;SDS011;38940;50.096;4.012;2023-04-15T08:56:07;4.47;;;2.13;;
53056;SDS011;38940;50.096;4.012;2023-04-15T08:58:34;4.43;;;1.80;;
53056;SDS011;38940;50.096;4.012;2023-04-15T09:01:01;5.47;;;2.22;;
53056;SDS011;38940;50.096;4.012;2023-04-15T09:03:27;4.97;;;2.22;;
53056;SDS011;38940;50.096;4.012;2023-04-15T09:05:53;4.47;;;2.20;;
53056;SDS011;38940;50.096;4.012;2023-04-15T09:08:19;4.93;;;2.17;;
53056;SDS011;38940;50.096;4.012;2023-04-15T09:10:46;3.65;;;1.73;;
53056;SDS011;38940;50.096;4.012;2023-04-15T09:13:12;4.87;;;1.90;;
53056;SDS011;38940;50.096;4.012;2023-04-15T09:15:38;3.67;;;1.95;;
53056;SDS011;38940;50.096;4.012;2023-04-15T09:18:05;4.28;;;2.05;;
53056;SDS011;38940;50.096;4.012;2023-04-15T09:20:37;5.38;;;2.08;;
53056;SDS011;38940;50.096;4.012;2023-04-15T09:23:10;6.15;;;2.00;;
53056;SDS011;38940;50.096;4.012;2023-04-15T09:25:37;6.23;;;1.73;;
53056;SDS011;38940;50.096;4.012;2023-04-15T09:28:06;3.45;;;1.17;;
53056;SDS011;38940;50.096;4.012;2023-04-15T09:30:32;2.70;;;1.10;;
53056;SDS011;38940;50.096;4.012;2023-04-15T09:32:59;5.03;;;1.20;;
53056;SDS011;38940;50.096;4.012;2023-04-15T09:35:34;3.75;;;1.00;;
53056;SDS011;38940;50.096;4.012;2023-04-15T09:38:05;3.83;;;1.38;;
53056;SDS011;38940;50.096;4.012;2023-04-15T09:40:35;4.43;;;1.20;;
53056;SDS011;38940;50.096;4.012;2023-04-15T09:43:02;4.70;;;1.27;;
53056;SDS011;38940;50.096;4.012;2023-04-15T09:45:29;2.95;;;1.23;;
53056;SDS011;38940;50.096;4.012;2023-04-15T09:47:58;3.53;;;0.95;;
53056;SDS011;38940;50.096;4.012;2023-04-15T09:50:28;2.97;;;1.08;;
53056;SDS011;38940;50.096;4.012;2023-04-15T09:52:54;7.22;;;1.10;;
53056;SDS011;38940;50.096;4.012;2023-04-15T09:55:21;5.28;;;1.33;;
53056;SDS011;38940;50.096;4.012;2023-04-15T09:57:47;6.63;;;2.15;;
53056;SDS011;38940;50.096;4.012;2023-04-15T10:00:13;7.40;;;2.57;;
53056;SDS011;38940;50.096;4.012;2023-04-15T10:02:40;7.13;;;2.40;;
53056;SDS011;38940;50.096;4.012;2023-04-15T10:05:06;5.85;;;2.55;;
53056;SDS011;38940;50.096;4.012;2023-04-15T10:07:35;5.78;;;2.50;;
53056;SDS011;38940;50.096;4.012;2023-04-15T10:10:01;8.17;;;2.83;;
53056;SDS011;38940;50.096;4.012;2023-04-15T10:12:29;8.27;;;2.72;;
53056;SDS011;38940;50.096;4.012;2023-04-15T10:14:58;10.10;;;3.03;;
53056;SDS011;38940;50.096;4.012;2023-04-15T10:17:25;8.17;;;2.90;;
53056;SDS011;38940;50.096;4.012;2023-04-15T10:19:53;7.13;;;2.60;;
53056;SDS011;38940;50.096;4.012;2023-04-15T10:22:20;8.27;;;2.80;;
53056;SDS011;38940;50.096;4.012;2023-04-15T10:24:47;9.77;;;3.60;;
53056;SDS011;38940;50.096;4.012;2023-04-15T10:27:14;9.60;;;3.85;;
53056;SDS011;38940;50.096;4.012;2023-04-15T10:29:40;13.95;;;4.03;;
53056;SDS011;38940;50.096;4.012;2023-04-15T10:32:06;12.70;;;3.90;;
53056;SDS011;38940;50.096;4.012;2023-04-15T10:34:32;11.60;;;4.00;;
53056;SDS011;38940;50.096;4.012;2023-04-15T10:37:00;11.40;;;4.20;;
53056;SDS011;38940;50.096;4.012;2023-04-15T10:42:09;11.07;;;4.40;;
53056;SDS011;38940;50.096;4.012;2023-04-15T10:44:36;10.60;;;4.60;;
53056;SDS011;38940;50.096;4.012;2023-04-15T10:47:09;10.13;;;4.50;;
53056;SDS011;38940;50.096;4.012;2023-04-15T10:49:41;9.48;;;4.10;;
53056;SDS011;38940;50.096;4.012;2023-04-15T10:52:09;8.95;;;2.63;;
53056;SDS011;38940;50.096;4.012;2023-04-15T10:54:35;8.13;;;2.30;;
53056;SDS011;38940;50.096;4.012;2023-04-15T10:59:30;6.60;;;2.05;;
53056;SDS011;38940;50.096;4.012;2023-04-15T11:02:00;7.18;;;2.10;;
53056;SDS011;38940;50.096;4.012;2023-04-15T11:07:11;4.45;;;2.10;;
53056;SDS011;38940;50.096;4.012;2023-04-15T11:09:37;8.35;;;2.40;;
53056;SDS011;38940;50.096;4.012;2023-04-15T11:12:04;6.50;;;2.05;;
53056;SDS011;38940;50.096;4.012;2023-04-15T11:14:32;8.30;;;2.25;;
53056;SDS011;38940;50.096;4.012;2023-04-15T11:16:59;6.57;;;2.10;;
53056;SDS011;38940;50.096;4.012;2023-04-15T11:19:25;6.18;;;2.30;;
53056;SDS011;38940;50.096;4.012;2023-04-15T11:21:51;6.20;;;2.30;;
53056;SDS011;38940;50.096;4.012;2023-04-15T11:24:24;3.53;;;1.30;;
53056;SDS011;38940;50.096;4.012;2023-04-15T11:26:56;4.55;;;1.88;;
53056;SDS011;38940;50.096;4.012;2023-04-15T11:29:27;7.63;;;2.10;;
53056;SDS011;38940;50.096;4.012;2023-04-15T11:32:00;7.35;;;2.03;;
53056;SDS011;38940;50.096;4.012;2023-04-15T11:34:27;10.02;;;2.60;;
53056;SDS011;38940;50.096;4.012;2023-04-15T11:36:55;8.52;;;2.17;;
53056;SDS011;38940;50.096;4.012;2023-04-15T11:39:21;6.13;;;2.17;;
53056;SDS011;38940;50.096;4.012;2023-04-15T11:41:47;8.90;;;2.00;;
53056;SDS011;38940;50.096;4.012;2023-04-15T11:44:17;5.50;;;2.38;;
53056;SDS011;38940;50.096;4.012;2023-04-15T11:46:44;6.45;;;2.55;;
53056;SDS011;38940;50.096;4.012;2023-04-15T11:49:10;5.97;;;2.10;;
53056;SDS011;38940;50.096;4.012;2023-04-15T11:51:36;10.67;;;2.60;;
53056;SDS011;38940;50.096;4.012;2023-04-15T11:54:02;5.63;;;2.42;;
53056;SDS011;38940;50.096;4.012;2023-04-15T11:56:28;6.80;;;2.65;;
53056;SDS011;38940;50.096;4.012;2023-04-15T11:58:54;7.20;;;2.70;;
53056;SDS011;38940;50.096;4.012;2023-04-15T12:01:32;8.77;;;2.92;;
53056;SDS011;38940;50.096;4.012;2023-04-15T12:03:59;7.43;;;3.03;;
53056;SDS011;38940;50.096;4.012;2023-04-15T12:06:30;9.32;;;3.40;;
53056;SDS011;38940;50.096;4.012;2023-04-15T12:09:11;7.80;;;3.13;;
53056;SDS011;38940;50.096;4.012;2023-04-15T12:14:11;8.65;;;3.22;;
53056;SDS011;38940;50.096;4.012;2023-04-15T12:16:41;6.65;;;3.03;;
53056;SDS011;38940;50.096;4.012;2023-04-15T12:19:11;7.75;;;3.00;;
53056;SDS011;38940;50.096;4.012;2023-04-15T12:21:38;10.93;;;3.00;;
53056;SDS011;38940;50.096;4.012;2023-04-15T12:24:05;8.63;;;2.80;;
53056;SDS011;38940;50.096;4.012;2023-04-15T12:26:42;8.30;;;2.47;;
53056;SDS011;38940;50.096;4.012;2023-04-15T12:29:09;8.98;;;2.65;;
53056;SDS011;38940;50.096;4.012;2023-04-15T12:31:35;6.78;;;2.63;;
53056;SDS011;38940;50.096;4.012;2023-04-15T12:34:02;6.93;;;2.70;;
53056;SDS011;38940;50.096;4.012;2023-04-15T12:36:29;6.68;;;2.70;;
53056;SDS011;38940;50.096;4.012;2023-04-15T12:39:04;8.27;;;2.90;;
53056;SDS011;38940;50.096;4.012;2023-04-15T12:41:30;10.35;;;2.97;;
53056;SDS011;38940;50.096;4.012;2023-04-15T12:43:57;5.32;;;2.60;;
53056;SDS011;38940;50.096;4.012;2023-04-15T12:46:23;5.38;;;2.47;;
53056;SDS011;38940;50.096;4.012;2023-04-15T12:48:49;8.02;;;2.85;;
53056;SDS011;38940;50.096;4.012;2023-04-15T12:51:16;5.53;;;2.60;;
53056;SDS011;38940;50.096;4.012;2023-04-15T12:53:43;7.07;;;2.92;;
53056;SDS011;38940;50.096;4.012;2023-04-15T12:56:08;5.90;;;2.90;;
53056;SDS011;38940;50.096;4.012;2023-04-15T12:58:35;7.35;;;2.50;;
53056;SDS011;38940;50.096;4.012;2023-04-15T13:01:01;6.55;;;2.97;;
53056;SDS011;38940;50.096;4.012;2023-04-15T13:03:27;6.30;;;2.53;;
53056;SDS011;38940;50.096;4.012;2023-04-15T13:05:53;5.50;;;2.30;;
53056;SDS011;38940;50.096;4.012;2023-04-15T13:08:19;5.95;;;2.50;;
53056;SDS011;38940;50.096;4.012;2023-04-15T13:10:45;7.13;;;2.97;;
53056;SDS011;38940;50.096;4.012;2023-04-15T13:13:11;5.93;;;2.58;;
53056;SDS011;38940;50.096;4.012;2023-04-15T13:15:37;9.18;;;2.70;;
53056;SDS011;38940;50.096;4.012;2023-04-15T13:18:05;11.25;;;2.88;;
53056;SDS011;38940;50.096;4.012;2023-04-15T13:20:31;6.82;;;2.20;;
53056;SDS011;38940;50.096;4.012;2023-04-15T13:22:57;6.75;;;2.40;;
53056;SDS011;38940;50.096;4.012;2023-04-15T13:25:23;6.45;;;2.78;;
53056;SDS011;38940;50.096;4.012;2023-04-15T13:27:50;3.83;;;2.13;;
53056;SDS011;38940;50.096;4.012;2023-04-15T13:30:16;5.03;;;1.90;;
53056;SDS011;38940;50.096;4.012;2023-04-15T13:32:42;7.78;;;1.98;;
53056;SDS011;38940;50.096;4.012;2023-04-15T13:35:08;9.02;;;2.08;;
53056;SDS011;38940;50.096;4.012;2023-04-15T13:37:34;5.15;;;1.73;;
53056;SDS011;38940;50.096;4.012;2023-04-15T13:40:00;5.28;;;2.30;;
53056;SDS011;38940;50.096;4.012;2023-04-15T13:42:27;6.05;;;2.08;;
53056;SDS011;38940;50.096;4.012;2023-04-15T13:44:53;5.90;;;2.17;;
53056;SDS011;38940;50.096;4.012;2023-04-15T13:47:19;6.22;;;1.90;;
53056;SDS011;38940;50.096;4.012;2023-04-15T13:49:45;2.97;;;1.60;;
53056;SDS011;38940;50.096;4.012;2023-04-15T13:52:11;5.72;;;1.60;;
53056;SDS011;38940;50.096;4.012;2023-04-15T13:54:37;3.40;;;1.55;;
53056;SDS011;38940;50.096;4.012;2023-04-15T13:57:04;6.78;;;1.42;;
53056;SDS011;38940;50.096;4.012;2023-04-15T13:59:30;4.13;;;1.53;;
53056;SDS011;38940;50.096;4.012;2023-04-15T14:01:56;3.22;;;1.65;;
53056;SDS011;38940;50.096;4.012;2023-04-15T14:04:22;4.10;;;1.45;;
53056;SDS011;38940;50.096;4.012;2023-04-15T14:06:48;5.22;;;1.70;;
53056;SDS011;38940;50.096;4.012;2023-04-15T14:09:14;3.20;;;1.50;;
53056;SDS011;38940;50.096;4.012;2023-04-15T14:11:40;3.65;;;1.77;;
53056;SDS011;38940;50.096;4.012;2023-04-15T14:14:06;5.23;;;1.80;;
53056;SDS011;38940;50.096;4.012;2023-04-15T14:16:32;4.90;;;1.90;;
53056;SDS011;38940;50.096;4.012;2023-04-15T14:18:58;4.13;;;1.65;;
53056;SDS011;38940;50.096;4.012;2023-04-15T14:21:24;9.15;;;1.70;;
53056;SDS011;38940;50.096;4.012;2023-04-15T14:23:52;3.92;;;1.85;;
53056;SDS011;38940;50.096;4.012;2023-04-15T14:26:18;5.07;;;1.63;;
53056;SDS011;38940;50.096;4.012;2023-04-15T14:28:44;4.25;;;1.55;;
53056;SDS011;38940;50.096;4.012;2023-04-15T14:31:10;3.47;;;1.48;;
53056;SDS011;38940;50.096;4.012;2023-04-15T14:33:36;2.75;;;1.67;;
53056;SDS011;38940;50.096;4.012;2023-04-15T14:36:02;4.23;;;1.53;;
53056;SDS011;38940;50.096;4.012;2023-04-15T14:38:28;4.97;;;1.53;;
53056;SDS011;38940;50.096;4.012;2023-04-15T14:40:55;3.05;;;1.63;;
53056;SDS011;38940;50.096;4.012;2023-04-15T14:43:21;5.10;;;1.63;;
53056;SDS011;38940;50.096;4.012;2023-04-15T14:45:47;2.25;;;1.27;;
53056;SDS011;38940;50.096;4.012;2023-04-15T14:48:13;3.80;;;1.40;;
53056;SDS011;38940;50.096;4.012;2023-04-15T14:50:39;5.90;;;1.75;;
53056;SDS011;38940;50.096;4.012;2023-04-15T14:53:05;4.47;;;1.50;;
53056;SDS011;38940;50.096;4.012;2023-04-15T14:55:32;5.23;;;1.30;;